Ellison Bay, WI (54210)

2:26 AM CDT on March 24, 2017 (GMT -0500)
2 miles North of town | | Change Station

Elev 710 ft 45.22 °N, 87.11 °W | Updated 8 minutes ago

Rain
Rain
36.0 °F
Feels Like 31 °F
N
6.0
Wind Variable Wind from SSE
Gusts 10.0 mph

Today
High -- | Low -- °F
--% Chance of Precip.
Yesterday
High -- | Low -- °F
Precip. -- in
Pressure 29.95 in
Visibility 8.0 miles
Clouds Overcast 2900 ft
Windchill 31 °F
Dew Point 36 °F
Humidity 100%
Rainfall Not available.
Snow Depth Not available.
6:43 AM 7:06 PM
Waning Crescent, 17% visible
SPECI KESC 240717Z AUTO 00000KT 8SM -RA OVC029 01/00 A2995 RMK AO2 P0000 FZRANO
Pressure 29.95 in
Visibility 8.0 miles
Clouds Overcast 2900 ft
Windchill 31 °F
Dew Point 36 °F
Humidity 100%
Rainfall Not available.
Snow Depth Not available.
6:43 AM 7:06 PM
Waning Crescent, 17% visible
SPECI KESC 240717Z AUTO 00000KT 8SM -RA OVC029 01/00 A2995 RMK AO2 P0000 FZRANO

Get Severe Weather Alerts

Thanks for signing up!

Be on the lookout for a verification email in your inbox.

You'll start receiving the daily forecast at 8 AM.

×

10-Day Weather Forecast

Almanac

Astronomy

Mar. 24, 2017 Rise Set
Actual Time
Civil Twilight
Nautical Twilight
Astronomical Twilight
Moon
Length of Visible Light
Length of Day
Tomorrow will be .
, % of the Moon is Illuminated

Today's Extremes

State Highs State Lows

Community

WunderPhotos

Upload Photos

1,962,540 photos uploaded!

WunderBlog® & News

Nearby

Air Quality

  Air Quality AQ Index Pollutant
Not available.

Snow Depth

Station Depth Elevation

Earthquake Activity

City Distance Mag. Time & Date
Minimum magnitude displayed is 2.5.

Earthquake Activity

City Distance Mag. Time & Date
Minimum magnitude displayed is 2.5.

Coastal Water Temperatures

Place Temperature

Stations

Nearby Weather Stations

Station Location Temp. Windchill Dew Point Humidity Wind Precip. Elev Updated Type
                   

Watches & Warnings

There are currently no watches in effect.